sensor_id;sensor_type;location;lat;lon;timestamp;P1;durP1;ratioP1;P2;durP2;ratioP2
85734;SDS011;76179;42.316;22.856;2024-02-28T00:00:20;10.15;;;4.05;;
85734;SDS011;76179;42.316;22.856;2024-02-28T00:02:45;10.20;;;3.72;;
85734;SDS011;76179;42.316;22.856;2024-02-28T00:05:11;10.63;;;4.10;;
85734;SDS011;76179;42.316;22.856;2024-02-28T00:07:36;11.02;;;4.10;;
85734;SDS011;76179;42.316;22.856;2024-02-28T00:10:02;7.72;;;3.90;;
85734;SDS011;76179;42.316;22.856;2024-02-28T00:12:27;11.43;;;4.10;;
85734;SDS011;76179;42.316;22.856;2024-02-28T00:14:52;8.32;;;4.43;;
85734;SDS011;76179;42.316;22.856;2024-02-28T00:17:18;8.65;;;4.65;;
85734;SDS011;76179;42.316;22.856;2024-02-28T00:19:43;8.63;;;3.88;;
85734;SDS011;76179;42.316;22.856;2024-02-28T00:22:09;8.98;;;4.43;;
85734;SDS011;76179;42.316;22.856;2024-02-28T00:24:34;10.02;;;4.40;;
85734;SDS011;76179;42.316;22.856;2024-02-28T00:27:00;7.90;;;4.20;;
85734;SDS011;76179;42.316;22.856;2024-02-28T00:29:25;8.68;;;3.85;;
85734;SDS011;76179;42.316;22.856;2024-02-28T00:31:51;9.05;;;4.13;;
85734;SDS011;76179;42.316;22.856;2024-02-28T00:34:17;9.65;;;3.75;;
85734;SDS011;76179;42.316;22.856;2024-02-28T00:36:42;8.85;;;3.78;;
85734;SDS011;76179;42.316;22.856;2024-02-28T00:39:08;8.25;;;3.03;;
85734;SDS011;76179;42.316;22.856;2024-02-28T00:41:33;10.30;;;4.82;;
85734;SDS011;76179;42.316;22.856;2024-02-28T00:43:59;9.98;;;4.88;;
85734;SDS011;76179;42.316;22.856;2024-02-28T00:46:24;8.30;;;3.55;;
85734;SDS011;76179;42.316;22.856;2024-02-28T00:48:49;10.20;;;4.45;;
85734;SDS011;76179;42.316;22.856;2024-02-28T00:51:15;8.98;;;4.25;;
85734;SDS011;76179;42.316;22.856;2024-02-28T00:53:40;12.05;;;4.90;;
85734;SDS011;76179;42.316;22.856;2024-02-28T00:56:06;9.60;;;5.72;;
85734;SDS011;76179;42.316;22.856;2024-02-28T00:58:31;10.80;;;4.30;;
85734;SDS011;76179;42.316;22.856;2024-02-28T01:00:57;10.77;;;4.38;;
85734;SDS011;76179;42.316;22.856;2024-02-28T01:03:22;9.02;;;5.07;;
85734;SDS011;76179;42.316;22.856;2024-02-28T01:05:51;9.23;;;4.75;;
85734;SDS011;76179;42.316;22.856;2024-02-28T01:08:16;7.82;;;3.58;;
85734;SDS011;76179;42.316;22.856;2024-02-28T01:10:44;9.07;;;4.07;;
85734;SDS011;76179;42.316;22.856;2024-02-28T01:13:10;11.25;;;5.45;;
85734;SDS011;76179;42.316;22.856;2024-02-28T01:15:35;11.73;;;5.55;;
85734;SDS011;76179;42.316;22.856;2024-02-28T01:18:01;10.25;;;5.15;;
85734;SDS011;76179;42.316;22.856;2024-02-28T01:20:26;10.00;;;4.60;;
85734;SDS011;76179;42.316;22.856;2024-02-28T01:22:52;11.05;;;4.82;;
85734;SDS011;76179;42.316;22.856;2024-02-28T01:25:17;18.52;;;7.18;;
85734;SDS011;76179;42.316;22.856;2024-02-28T01:27:43;10.00;;;4.95;;
85734;SDS011;76179;42.316;22.856;2024-02-28T01:30:09;13.93;;;4.18;;
85734;SDS011;76179;42.316;22.856;2024-02-28T01:32:34;10.77;;;4.75;;
85734;SDS011;76179;42.316;22.856;2024-02-28T01:35:01;7.72;;;3.80;;
85734;SDS011;76179;42.316;22.856;2024-02-28T01:37:28;9.63;;;5.45;;
85734;SDS011;76179;42.316;22.856;2024-02-28T01:39:53;10.20;;;5.10;;
85734;SDS011;76179;42.316;22.856;2024-02-28T01:42:19;13.50;;;3.88;;
85734;SDS011;76179;42.316;22.856;2024-02-28T01:44:45;8.80;;;4.90;;
85734;SDS011;76179;42.316;22.856;2024-02-28T01:47:13;10.35;;;5.40;;
85734;SDS011;76179;42.316;22.856;2024-02-28T01:49:39;10.55;;;5.50;;
85734;SDS011;76179;42.316;22.856;2024-02-28T01:52:07;10.57;;;4.43;;
85734;SDS011;76179;42.316;22.856;2024-02-28T01:54:32;9.88;;;4.78;;
85734;SDS011;76179;42.316;22.856;2024-02-28T01:57:00;10.05;;;4.43;;
85734;SDS011;76179;42.316;22.856;2024-02-28T01:59:26;9.50;;;4.35;;
85734;SDS011;76179;42.316;22.856;2024-02-28T02:01:52;10.15;;;5.57;;
85734;SDS011;76179;42.316;22.856;2024-02-28T02:04:19;12.70;;;4.80;;
85734;SDS011;76179;42.316;22.856;2024-02-28T02:06:44;13.90;;;6.25;;
85734;SDS011;76179;42.316;22.856;2024-02-28T02:09:12;11.20;;;5.15;;
85734;SDS011;76179;42.316;22.856;2024-02-28T02:11:38;10.48;;;5.65;;
85734;SDS011;76179;42.316;22.856;2024-02-28T02:14:03;9.52;;;5.38;;
85734;SDS011;76179;42.316;22.856;2024-02-28T02:16:29;14.23;;;5.00;;
85734;SDS011;76179;42.316;22.856;2024-02-28T02:18:55;12.90;;;6.07;;
85734;SDS011;76179;42.316;22.856;2024-02-28T02:21:22;10.05;;;5.78;;
85734;SDS011;76179;42.316;22.856;2024-02-28T02:23:49;16.60;;;5.65;;
85734;SDS011;76179;42.316;22.856;2024-02-28T02:26:15;18.58;;;6.75;;
85734;SDS011;76179;42.316;22.856;2024-02-28T02:28:40;11.52;;;4.95;;
85734;SDS011;76179;42.316;22.856;2024-02-28T02:31:05;11.27;;;4.95;;
85734;SDS011;76179;42.316;22.856;2024-02-28T02:33:31;9.23;;;5.28;;
85734;SDS011;76179;42.316;22.856;2024-02-28T02:35:56;10.30;;;5.10;;
85734;SDS011;76179;42.316;22.856;2024-02-28T02:38:22;12.90;;;5.63;;
85734;SDS011;76179;42.316;22.856;2024-02-28T02:40:50;13.30;;;6.07;;
85734;SDS011;76179;42.316;22.856;2024-02-28T02:43:16;9.95;;;4.50;;
85734;SDS011;76179;42.316;22.856;2024-02-28T02:45:42;10.27;;;5.72;;
85734;SDS011;76179;42.316;22.856;2024-02-28T02:48:08;11.75;;;5.65;;
85734;SDS011;76179;42.316;22.856;2024-02-28T02:50:34;11.65;;;5.18;;
85734;SDS011;76179;42.316;22.856;2024-02-28T02:52:59;10.75;;;5.22;;
85734;SDS011;76179;42.316;22.856;2024-02-28T02:55:25;9.40;;;5.53;;
85734;SDS011;76179;42.316;22.856;2024-02-28T02:57:50;10.02;;;4.95;;
85734;SDS011;76179;42.316;22.856;2024-02-28T03:00:15;12.75;;;5.43;;
85734;SDS011;76179;42.316;22.856;2024-02-28T03:02:41;11.90;;;4.80;;
85734;SDS011;76179;42.316;22.856;2024-02-28T03:05:06;14.65;;;5.63;;
85734;SDS011;76179;42.316;22.856;2024-02-28T03:07:32;11.63;;;6.72;;
85734;SDS011;76179;42.316;22.856;2024-02-28T03:09:58;9.95;;;5.25;;
85734;SDS011;76179;42.316;22.856;2024-02-28T03:12:24;9.43;;;5.43;;
85734;SDS011;76179;42.316;22.856;2024-02-28T03:14:49;11.25;;;6.85;;
85734;SDS011;76179;42.316;22.856;2024-02-28T03:17:14;10.20;;;4.63;;
85734;SDS011;76179;42.316;22.856;2024-02-28T03:19:43;12.43;;;4.82;;
85734;SDS011;76179;42.316;22.856;2024-02-28T03:22:08;14.18;;;6.60;;
85734;SDS011;76179;42.316;22.856;2024-02-28T03:24:33;14.82;;;8.07;;
85734;SDS011;76179;42.316;22.856;2024-02-28T03:27:02;16.00;;;8.38;;
85734;SDS011;76179;42.316;22.856;2024-02-28T03:29:28;16.67;;;8.32;;
85734;SDS011;76179;42.316;22.856;2024-02-28T03:31:53;19.05;;;7.82;;
85734;SDS011;76179;42.316;22.856;2024-02-28T03:34:19;13.52;;;8.02;;
85734;SDS011;76179;42.316;22.856;2024-02-28T03:36:44;14.68;;;8.38;;
85734;SDS011;76179;42.316;22.856;2024-02-28T03:39:10;15.52;;;8.25;;
85734;SDS011;76179;42.316;22.856;2024-02-28T03:41:35;15.00;;;7.30;;
85734;SDS011;76179;42.316;22.856;2024-02-28T03:44:00;16.17;;;6.82;;
85734;SDS011;76179;42.316;22.856;2024-02-28T03:46:26;13.13;;;6.60;;
85734;SDS011;76179;42.316;22.856;2024-02-28T03:48:51;17.00;;;6.95;;
85734;SDS011;76179;42.316;22.856;2024-02-28T03:51:17;18.63;;;7.63;;
85734;SDS011;76179;42.316;22.856;2024-02-28T03:53:42;13.20;;;7.30;;
85734;SDS011;76179;42.316;22.856;2024-02-28T03:56:07;14.52;;;7.93;;
85734;SDS011;76179;42.316;22.856;2024-02-28T03:58:33;15.15;;;8.32;;
85734;SDS011;76179;42.316;22.856;2024-02-28T04:00:58;15.40;;;8.13;;
85734;SDS011;76179;42.316;22.856;2024-02-28T04:03:24;14.57;;;7.18;;
85734;SDS011;76179;42.316;22.856;2024-02-28T04:05:49;14.93;;;6.68;;
85734;SDS011;76179;42.316;22.856;2024-02-28T04:08:14;12.88;;;6.95;;
85734;SDS011;76179;42.316;22.856;2024-02-28T04:10:40;13.30;;;7.47;;
85734;SDS011;76179;42.316;22.856;2024-02-28T04:13:05;16.35;;;7.20;;
85734;SDS011;76179;42.316;22.856;2024-02-28T04:15:31;12.23;;;8.95;;
85734;SDS011;76179;42.316;22.856;2024-02-28T04:17:57;13.70;;;7.20;;
85734;SDS011;76179;42.316;22.856;2024-02-28T04:20:23;18.33;;;8.10;;
85734;SDS011;76179;42.316;22.856;2024-02-28T04:22:48;14.23;;;7.22;;
85734;SDS011;76179;42.316;22.856;2024-02-28T04:25:13;12.02;;;5.95;;
85734;SDS011;76179;42.316;22.856;2024-02-28T04:27:39;15.43;;;7.47;;
85734;SDS011;76179;42.316;22.856;2024-02-28T04:30:04;14.98;;;7.47;;
85734;SDS011;76179;42.316;22.856;2024-02-28T04:32:30;14.98;;;7.88;;
85734;SDS011;76179;42.316;22.856;2024-02-28T04:34:56;12.68;;;7.38;;
85734;SDS011;76179;42.316;22.856;2024-02-28T04:37:21;13.02;;;7.65;;
85734;SDS011;76179;42.316;22.856;2024-02-28T04:39:47;13.23;;;7.20;;
85734;SDS011;76179;42.316;22.856;2024-02-28T04:42:12;15.15;;;6.50;;
85734;SDS011;76179;42.316;22.856;2024-02-28T04:44:38;14.60;;;8.35;;
85734;SDS011;76179;42.316;22.856;2024-02-28T04:47:04;13.10;;;7.70;;
85734;SDS011;76179;42.316;22.856;2024-02-28T04:49:29;17.05;;;9.43;;
85734;SDS011;76179;42.316;22.856;2024-02-28T04:51:55;18.08;;;9.00;;
85734;SDS011;76179;42.316;22.856;2024-02-28T04:54:20;17.20;;;7.22;;
85734;SDS011;76179;42.316;22.856;2024-02-28T04:56:46;12.90;;;7.55;;
85734;SDS011;76179;42.316;22.856;2024-02-28T04:59:11;13.50;;;8.32;;
85734;SDS011;76179;42.316;22.856;2024-02-28T05:01:37;12.65;;;6.40;;
85734;SDS011;76179;42.316;22.856;2024-02-28T05:04:08;13.15;;;6.53;;
85734;SDS011;76179;42.316;22.856;2024-02-28T05:06:34;10.25;;;6.25;;
85734;SDS011;76179;42.316;22.856;2024-02-28T05:09:00;12.38;;;6.50;;
85734;SDS011;76179;42.316;22.856;2024-02-28T05:11:25;12.68;;;7.53;;
85734;SDS011;76179;42.316;22.856;2024-02-28T05:13:51;11.98;;;7.78;;
85734;SDS011;76179;42.316;22.856;2024-02-28T05:16:16;19.90;;;9.00;;
85734;SDS011;76179;42.316;22.856;2024-02-28T05:18:44;12.30;;;7.88;;
85734;SDS011;76179;42.316;22.856;2024-02-28T05:21:10;14.25;;;7.82;;
85734;SDS011;76179;42.316;22.856;2024-02-28T05:23:35;14.70;;;7.78;;
85734;SDS011;76179;42.316;22.856;2024-02-28T05:26:01;12.18;;;7.63;;
85734;SDS011;76179;42.316;22.856;2024-02-28T05:28:35;13.48;;;8.48;;
85734;SDS011;76179;42.316;22.856;2024-02-28T05:33:59;23.42;;;10.25;;
85734;SDS011;76179;42.316;22.856;2024-02-28T05:36:26;19.63;;;8.93;;
85734;SDS011;76179;42.316;22.856;2024-02-28T05:38:53;14.95;;;7.30;;
85734;SDS011;76179;42.316;22.856;2024-02-28T05:41:19;12.13;;;6.63;;
85734;SDS011;76179;42.316;22.856;2024-02-28T05:43:45;11.60;;;6.60;;
85734;SDS011;76179;42.316;22.856;2024-02-28T05:46:12;14.48;;;7.25;;
85734;SDS011;76179;42.316;22.856;2024-02-28T05:48:37;12.25;;;7.28;;
85734;SDS011;76179;42.316;22.856;2024-02-28T05:51:03;13.85;;;7.68;;
85734;SDS011;76179;42.316;22.856;2024-02-28T05:53:29;19.27;;;9.57;;
85734;SDS011;76179;42.316;22.856;2024-02-28T05:56:01;17.80;;;9.90;;
85734;SDS011;76179;42.316;22.856;2024-02-28T05:58:26;20.60;;;12.05;;
85734;SDS011;76179;42.316;22.856;2024-02-28T06:00:52;21.42;;;11.50;;
85734;SDS011;76179;42.316;22.856;2024-02-28T06:03:17;28.70;;;16.17;;
85734;SDS011;76179;42.316;22.856;2024-02-28T06:05:42;24.95;;;14.00;;
85734;SDS011;76179;42.316;22.856;2024-02-28T06:08:08;20.52;;;11.65;;
85734;SDS011;76179;42.316;22.856;2024-02-28T06:10:33;22.88;;;11.55;;
85734;SDS011;76179;42.316;22.856;2024-02-28T06:12:59;20.38;;;10.65;;
85734;SDS011;76179;42.316;22.856;2024-02-28T06:15:25;17.35;;;10.43;;
85734;SDS011;76179;42.316;22.856;2024-02-28T06:17:51;13.63;;;7.55;;
85734;SDS011;76179;42.316;22.856;2024-02-28T06:20:16;14.88;;;9.63;;
85734;SDS011;76179;42.316;22.856;2024-02-28T06:22:42;15.65;;;9.68;;
85734;SDS011;76179;42.316;22.856;2024-02-28T06:25:07;21.83;;;8.95;;
85734;SDS011;76179;42.316;22.856;2024-02-28T06:27:39;17.42;;;9.65;;
85734;SDS011;76179;42.316;22.856;2024-02-28T06:30:05;17.92;;;9.85;;
85734;SDS011;76179;42.316;22.856;2024-02-28T06:32:32;17.80;;;10.80;;
85734;SDS011;76179;42.316;22.856;2024-02-28T06:34:57;28.23;;;15.18;;
85734;SDS011;76179;42.316;22.856;2024-02-28T06:37:22;49.55;;;24.48;;
85734;SDS011;76179;42.316;22.856;2024-02-28T06:39:48;21.25;;;10.43;;
85734;SDS011;76179;42.316;22.856;2024-02-28T06:42:13;20.02;;;10.63;;
85734;SDS011;76179;42.316;22.856;2024-02-28T06:44:38;21.00;;;10.80;;
85734;SDS011;76179;42.316;22.856;2024-02-28T06:47:04;18.90;;;10.90;;
85734;SDS011;76179;42.316;22.856;2024-02-28T06:49:29;16.60;;;11.18;;
85734;SDS011;76179;42.316;22.856;2024-02-28T06:51:55;54.30;;;28.20;;
85734;SDS011;76179;42.316;22.856;2024-02-28T06:54:23;31.90;;;20.38;;
85734;SDS011;76179;42.316;22.856;2024-02-28T06:56:48;17.15;;;10.60;;
85734;SDS011;76179;42.316;22.856;2024-02-28T06:59:14;20.38;;;10.20;;
85734;SDS011;76179;42.316;22.856;2024-02-28T07:01:39;20.42;;;10.18;;
85734;SDS011;76179;42.316;22.856;2024-02-28T07:04:04;18.45;;;10.43;;
85734;SDS011;76179;42.316;22.856;2024-02-28T07:06:30;22.15;;;10.93;;
85734;SDS011;76179;42.316;22.856;2024-02-28T07:08:55;19.25;;;11.23;;
85734;SDS011;76179;42.316;22.856;2024-02-28T07:11:21;24.17;;;12.18;;
85734;SDS011;76179;42.316;22.856;2024-02-28T08:46:47;14.33;;;11.67;;
85734;SDS011;76179;42.316;22.856;2024-02-28T08:49:13;11.77;;;6.93;;
85734;SDS011;76179;42.316;22.856;2024-02-28T08:51:39;13.73;;;6.90;;
85734;SDS011;76179;42.316;22.856;2024-02-28T08:54:05;14.07;;;10.43;;
85734;SDS011;76179;42.316;22.856;2024-02-28T08:56:31;10.95;;;6.15;;
85734;SDS011;76179;42.316;22.856;2024-02-28T08:58:56;12.75;;;6.53;;
85734;SDS011;76179;42.316;22.856;2024-02-28T09:01:21;13.30;;;9.95;;
85734;SDS011;76179;42.316;22.856;2024-02-28T09:03:47;14.45;;;9.70;;
85734;SDS011;76179;42.316;22.856;2024-02-28T09:06:12;13.50;;;6.30;;
85734;SDS011;76179;42.316;22.856;2024-02-28T09:08:38;12.77;;;9.00;;
85734;SDS011;76179;42.316;22.856;2024-02-28T09:11:03;14.85;;;10.80;;
85734;SDS011;76179;42.316;22.856;2024-02-28T09:13:30;9.60;;;5.63;;
85734;SDS011;76179;42.316;22.856;2024-02-28T09:15:55;9.88;;;6.28;;
85734;SDS011;76179;42.316;22.856;2024-02-28T09:18:21;11.10;;;4.95;;
85734;SDS011;76179;42.316;22.856;2024-02-28T09:20:47;10.18;;;5.20;;
85734;SDS011;76179;42.316;22.856;2024-02-28T09:23:13;11.90;;;6.85;;
85734;SDS011;76179;42.316;22.856;2024-02-28T09:25:39;9.15;;;5.03;;
85734;SDS011;76179;42.316;22.856;2024-02-28T09:28:05;9.48;;;5.97;;
85734;SDS011;76179;42.316;22.856;2024-02-28T09:30:30;9.80;;;4.30;;
85734;SDS011;76179;42.316;22.856;2024-02-28T09:32:56;10.98;;;4.95;;
85734;SDS011;76179;42.316;22.856;2024-02-28T09:35:23;17.88;;;8.80;;
85734;SDS011;76179;42.316;22.856;2024-02-28T09:37:48;10.68;;;6.35;;
85734;SDS011;76179;42.316;22.856;2024-02-28T09:40:14;16.77;;;4.60;;
85734;SDS011;76179;42.316;22.856;2024-02-28T09:42:39;15.13;;;7.70;;
85734;SDS011;76179;42.316;22.856;2024-02-28T09:45:04;8.90;;;3.90;;
85734;SDS011;76179;42.316;22.856;2024-02-28T09:47:35;11.07;;;6.53;;
85734;SDS011;76179;42.316;22.856;2024-02-28T09:50:00;8.82;;;3.65;;
85734;SDS011;76179;42.316;22.856;2024-02-28T09:52:27;8.85;;;3.28;;
85734;SDS011;76179;42.316;22.856;2024-02-28T09:54:53;10.48;;;7.00;;
85734;SDS011;76179;42.316;22.856;2024-02-28T09:57:18;7.95;;;2.92;;
85734;SDS011;76179;42.316;22.856;2024-02-28T09:59:44;9.38;;;4.45;;
85734;SDS011;76179;42.316;22.856;2024-02-28T10:02:13;12.80;;;6.65;;
85734;SDS011;76179;42.316;22.856;2024-02-28T10:04:45;10.25;;;4.75;;
85734;SDS011;76179;42.316;22.856;2024-02-28T10:07:13;13.10;;;6.88;;
85734;SDS011;76179;42.316;22.856;2024-02-28T10:09:39;10.15;;;3.55;;
85734;SDS011;76179;42.316;22.856;2024-02-28T10:12:07;10.07;;;6.30;;
85734;SDS011;76179;42.316;22.856;2024-02-28T10:14:33;10.32;;;4.70;;
85734;SDS011;76179;42.316;22.856;2024-02-28T10:16:59;8.50;;;3.85;;
85734;SDS011;76179;42.316;22.856;2024-02-28T10:19:24;10.70;;;3.38;;
85734;SDS011;76179;42.316;22.856;2024-02-28T10:21:50;10.35;;;3.95;;
85734;SDS011;76179;42.316;22.856;2024-02-28T10:24:16;8.05;;;2.78;;
85734;SDS011;76179;42.316;22.856;2024-02-28T10:26:45;10.15;;;6.07;;
85734;SDS011;76179;42.316;22.856;2024-02-28T10:29:20;13.80;;;3.30;;
85734;SDS011;76179;42.316;22.856;2024-02-28T10:31:46;10.98;;;5.13;;
85734;SDS011;76179;42.316;22.856;2024-02-28T10:34:12;7.70;;;2.97;;
85734;SDS011;76179;42.316;22.856;2024-02-28T10:36:41;8.70;;;2.97;;
85734;SDS011;76179;42.316;22.856;2024-02-28T10:39:09;7.95;;;3.17;;
85734;SDS011;76179;42.316;22.856;2024-02-28T10:41:37;9.77;;;3.30;;
85734;SDS011;76179;42.316;22.856;2024-02-28T10:44:04;6.43;;;2.42;;
85734;SDS011;76179;42.316;22.856;2024-02-28T10:46:30;8.48;;;2.90;;
85734;SDS011;76179;42.316;22.856;2024-02-28T10:48:56;13.88;;;7.13;;
85734;SDS011;76179;42.316;22.856;2024-02-28T10:51:25;9.00;;;3.00;;
85734;SDS011;76179;42.316;22.856;2024-02-28T10:56:36;10.85;;;5.38;;
85734;SDS011;76179;42.316;22.856;2024-02-28T10:59:05;6.07;;;3.22;;
85734;SDS011;76179;42.316;22.856;2024-02-28T11:01:37;8.95;;;2.70;;
85734;SDS011;76179;42.316;22.856;2024-02-28T11:04:08;12.50;;;5.40;;
85734;SDS011;76179;42.316;22.856;2024-02-28T11:06:46;9.75;;;5.50;;
85734;SDS011;76179;42.316;22.856;2024-02-28T11:09:18;6.63;;;2.10;;
85734;SDS011;76179;42.316;22.856;2024-02-28T11:11:51;7.53;;;4.53;;
85734;SDS011;76179;42.316;22.856;2024-02-28T11:14:17;8.02;;;5.13;;
85734;SDS011;76179;42.316;22.856;2024-02-28T11:16:42;9.43;;;6.00;;
85734;SDS011;76179;42.316;22.856;2024-02-28T11:19:19;7.65;;;2.55;;
85734;SDS011;76179;42.316;22.856;2024-02-28T11:21:52;6.90;;;4.32;;
85734;SDS011;76179;42.316;22.856;2024-02-28T11:24:22;6.95;;;2.40;;
85734;SDS011;76179;42.316;22.856;2024-02-28T11:26:49;8.13;;;2.38;;
85734;SDS011;76179;42.316;22.856;2024-02-28T11:29:16;10.18;;;4.82;;
85734;SDS011;76179;42.316;22.856;2024-02-28T13:04:58;8.90;;;2.45;;
85734;SDS011;76179;42.316;22.856;2024-02-28T13:07:24;8.27;;;2.75;;
85734;SDS011;76179;42.316;22.856;2024-02-28T13:09:49;10.23;;;1.55;;
85734;SDS011;76179;42.316;22.856;2024-02-28T13:12:14;7.47;;;1.85;;
85734;SDS011;76179;42.316;22.856;2024-02-28T13:14:40;6.72;;;2.67;;
85734;SDS011;76179;42.316;22.856;2024-02-28T13:17:05;6.43;;;2.22;;
85734;SDS011;76179;42.316;22.856;2024-02-28T13:19:31;7.47;;;2.25;;
85734;SDS011;76179;42.316;22.856;2024-02-28T13:21:56;9.15;;;2.55;;
85734;SDS011;76179;42.316;22.856;2024-02-28T13:24:21;8.80;;;1.88;;
85734;SDS011;76179;42.316;22.856;2024-02-28T13:26:47;4.80;;;1.98;;
85734;SDS011;76179;42.316;22.856;2024-02-28T13:29:12;6.35;;;2.03;;
85734;SDS011;76179;42.316;22.856;2024-02-28T13:31:38;8.00;;;2.60;;
85734;SDS011;76179;42.316;22.856;2024-02-28T13:34:03;13.77;;;3.08;;
85734;SDS011;76179;42.316;22.856;2024-02-28T13:36:29;6.50;;;1.77;;
85734;SDS011;76179;42.316;22.856;2024-02-28T13:38:57;7.32;;;2.90;;
85734;SDS011;76179;42.316;22.856;2024-02-28T13:41:23;7.50;;;1.98;;
85734;SDS011;76179;42.316;22.856;2024-02-28T13:43:48;9.32;;;3.45;;
85734;SDS011;76179;42.316;22.856;2024-02-28T13:46:14;7.35;;;2.67;;
85734;SDS011;76179;42.316;22.856;2024-02-28T13:48:40;9.77;;;2.70;;
85734;SDS011;76179;42.316;22.856;2024-02-28T13:51:05;7.97;;;2.60;;
85734;SDS011;76179;42.316;22.856;2024-02-28T13:53:31;7.78;;;2.13;;
85734;SDS011;76179;42.316;22.856;2024-02-28T13:55:56;8.45;;;2.00;;
85734;SDS011;76179;42.316;22.856;2024-02-28T13:58:21;7.38;;;2.83;;
85734;SDS011;76179;42.316;22.856;2024-02-28T14:00:47;9.30;;;4.75;;
85734;SDS011;76179;42.316;22.856;2024-02-28T14:03:12;6.25;;;2.63;;
85734;SDS011;76179;42.316;22.856;2024-02-28T14:05:39;7.25;;;2.67;;
85734;SDS011;76179;42.316;22.856;2024-02-28T14:08:05;10.65;;;2.17;;
85734;SDS011;76179;42.316;22.856;2024-02-28T14:10:34;6.70;;;2.05;;
85734;SDS011;76179;42.316;22.856;2024-02-28T14:13:00;11.02;;;2.15;;
85734;SDS011;76179;42.316;22.856;2024-02-28T14:15:26;6.22;;;2.55;;
85734;SDS011;76179;42.316;22.856;2024-02-28T14:17:51;7.15;;;1.98;;
85734;SDS011;76179;42.316;22.856;2024-02-28T14:20:17;10.98;;;3.05;;
85734;SDS011;76179;42.316;22.856;2024-02-28T14:22:43;10.13;;;3.40;;
85734;SDS011;76179;42.316;22.856;2024-02-28T14:25:16;10.88;;;2.72;;
85734;SDS011;76179;42.316;22.856;2024-02-28T14:27:43;10.20;;;3.05;;
85734;SDS011;76179;42.316;22.856;2024-02-28T14:30:10;9.80;;;3.28;;
85734;SDS011;76179;42.316;22.856;2024-02-28T14:32:36;8.75;;;3.60;;
85734;SDS011;76179;42.316;22.856;2024-02-28T14:35:03;7.05;;;1.95;;
85734;SDS011;76179;42.316;22.856;2024-02-28T14:37:30;7.20;;;2.00;;
85734;SDS011;76179;42.316;22.856;2024-02-28T14:39:55;9.70;;;3.33;;
85734;SDS011;76179;42.316;22.856;2024-02-28T14:42:21;6.82;;;2.20;;
85734;SDS011;76179;42.316;22.856;2024-02-28T14:44:46;7.35;;;3.20;;
85734;SDS011;76179;42.316;22.856;2024-02-28T14:47:12;11.40;;;1.92;;
85734;SDS011;76179;42.316;22.856;2024-02-28T14:49:37;7.10;;;2.25;;
85734;SDS011;76179;42.316;22.856;2024-02-28T14:52:03;7.20;;;1.98;;
85734;SDS011;76179;42.316;22.856;2024-02-28T14:54:38;6.88;;;3.10;;
85734;SDS011;76179;42.316;22.856;2024-02-28T14:57:20;6.72;;;1.92;;
85734;SDS011;76179;42.316;22.856;2024-02-28T14:59:51;7.75;;;2.70;;
85734;SDS011;76179;42.316;22.856;2024-02-28T15:02:17;8.65;;;1.92;;
85734;SDS011;76179;42.316;22.856;2024-02-28T15:04:42;6.45;;;1.85;;
85734;SDS011;76179;42.316;22.856;2024-02-28T15:07:07;9.60;;;2.22;;
85734;SDS011;76179;42.316;22.856;2024-02-28T15:09:33;8.10;;;2.80;;
85734;SDS011;76179;42.316;22.856;2024-02-28T15:11:58;7.53;;;2.08;;
85734;SDS011;76179;42.316;22.856;2024-02-28T15:14:24;6.07;;;2.17;;
85734;SDS011;76179;42.316;22.856;2024-02-28T15:16:50;10.70;;;2.05;;
85734;SDS011;76179;42.316;22.856;2024-02-28T15:19:18;9.40;;;2.42;;
85734;SDS011;76179;42.316;22.856;2024-02-28T15:21:44;5.28;;;2.05;;
85734;SDS011;76179;42.316;22.856;2024-02-28T15:24:10;9.38;;;2.60;;
85734;SDS011;76179;42.316;22.856;2024-02-28T15:26:35;9.65;;;4.80;;
85734;SDS011;76179;42.316;22.856;2024-02-28T15:29:00;15.30;;;7.47;;
85734;SDS011;76179;42.316;22.856;2024-02-28T15:31:26;8.88;;;4.53;;
85734;SDS011;76179;42.316;22.856;2024-02-28T15:33:52;9.95;;;4.60;;
85734;SDS011;76179;42.316;22.856;2024-02-28T15:36:18;13.30;;;8.65;;
85734;SDS011;76179;42.316;22.856;2024-02-28T15:38:43;17.20;;;7.18;;
85734;SDS011;76179;42.316;22.856;2024-02-28T15:41:09;14.48;;;6.95;;
85734;SDS011;76179;42.316;22.856;2024-02-28T15:43:34;16.65;;;7.50;;
85734;SDS011;76179;42.316;22.856;2024-02-28T15:46:05;13.55;;;6.32;;
85734;SDS011;76179;42.316;22.856;2024-02-28T15:48:31;14.18;;;6.28;;
85734;SDS011;76179;42.316;22.856;2024-02-28T15:50:56;9.23;;;3.38;;
85734;SDS011;76179;42.316;22.856;2024-02-28T15:53:23;8.00;;;2.67;;
85734;SDS011;76179;42.316;22.856;2024-02-28T15:55:49;11.65;;;3.30;;
85734;SDS011;76179;42.316;22.856;2024-02-28T15:58:15;7.70;;;2.63;;
85734;SDS011;76179;42.316;22.856;2024-02-28T16:00:40;8.52;;;2.88;;
85734;SDS011;76179;42.316;22.856;2024-02-28T16:03:05;7.80;;;3.15;;
85734;SDS011;76179;42.316;22.856;2024-02-28T16:05:31;6.88;;;2.80;;
85734;SDS011;76179;42.316;22.856;2024-02-28T16:07:57;8.68;;;3.22;;
85734;SDS011;76179;42.316;22.856;2024-02-28T16:10:30;6.65;;;2.10;;
85734;SDS011;76179;42.316;22.856;2024-02-28T16:13:06;9.27;;;3.05;;
85734;SDS011;76179;42.316;22.856;2024-02-28T16:15:32;6.00;;;1.88;;
85734;SDS011;76179;42.316;22.856;2024-02-28T16:17:59;7.25;;;2.40;;
85734;SDS011;76179;42.316;22.856;2024-02-28T16:20:27;7.90;;;3.15;;
85734;SDS011;76179;42.316;22.856;2024-02-28T16:22:52;16.30;;;5.35;;
85734;SDS011;76179;42.316;22.856;2024-02-28T16:25:24;13.40;;;5.10;;
85734;SDS011;76179;42.316;22.856;2024-02-28T16:27:59;11.18;;;4.32;;
85734;SDS011;76179;42.316;22.856;2024-02-28T16:30:24;14.90;;;5.60;;
85734;SDS011;76179;42.316;22.856;2024-02-28T16:32:49;14.27;;;5.95;;
85734;SDS011;76179;42.316;22.856;2024-02-28T16:35:15;13.77;;;5.50;;
85734;SDS011;76179;42.316;22.856;2024-02-28T16:37:40;8.60;;;3.75;;
85734;SDS011;76179;42.316;22.856;2024-02-28T16:40:06;12.07;;;4.10;;
85734;SDS011;76179;42.316;22.856;2024-02-28T16:42:33;15.82;;;4.78;;
85734;SDS011;76179;42.316;22.856;2024-02-28T16:44:58;11.45;;;2.28;;
85734;SDS011;76179;42.316;22.856;2024-02-28T16:47:23;15.48;;;4.70;;
85734;SDS011;76179;42.316;22.856;2024-02-28T16:49:49;11.32;;;3.60;;
85734;SDS011;76179;42.316;22.856;2024-02-28T16:52:14;9.60;;;4.07;;
85734;SDS011;76179;42.316;22.856;2024-02-28T16:54:42;11.90;;;4.25;;
85734;SDS011;76179;42.316;22.856;2024-02-28T16:57:07;9.88;;;2.40;;
85734;SDS011;76179;42.316;22.856;2024-02-28T16:59:33;8.02;;;3.15;;
85734;SDS011;76179;42.316;22.856;2024-02-28T17:01:58;17.15;;;6.13;;
85734;SDS011;76179;42.316;22.856;2024-02-28T17:04:24;18.25;;;7.18;;
85734;SDS011;76179;42.316;22.856;2024-02-28T17:06:52;13.10;;;4.60;;
85734;SDS011;76179;42.316;22.856;2024-02-28T17:09:18;15.85;;;4.88;;
85734;SDS011;76179;42.316;22.856;2024-02-28T17:11:43;18.13;;;7.43;;
85734;SDS011;76179;42.316;22.856;2024-02-28T17:14:08;12.10;;;4.55;;
85734;SDS011;76179;42.316;22.856;2024-02-28T17:16:35;20.30;;;6.50;;
85734;SDS011;76179;42.316;22.856;2024-02-28T17:19:02;15.95;;;6.63;;
85734;SDS011;76179;42.316;22.856;2024-02-28T17:21:27;12.85;;;5.75;;
85734;SDS011;76179;42.316;22.856;2024-02-28T17:23:54;16.13;;;6.18;;
85734;SDS011;76179;42.316;22.856;2024-02-28T17:26:19;15.85;;;5.97;;
85734;SDS011;76179;42.316;22.856;2024-02-28T17:28:45;11.48;;;5.05;;
85734;SDS011;76179;42.316;22.856;2024-02-28T17:31:28;9.70;;;3.47;;